Kakamas, South Africa
Current Conditions -  °F | °C
As of 6:00 AM on Sunday 23 Nov 2014 (Local Time) from FAUP Reporting Station
Clear Clear  
Wind Chill: 70°   Ceiling: Unl
Heat Index: 70°   Visibility: 6mi
Dew Point: 52°   Wind: 10mph
Humidity: 53%   Direction: 10°N
Pressure: 29.97"   Gusts: NA
Location:  28.77°S, 20.61°E
Report Text: FAUP 230400Z 01009KT CAVOK 21/11 Q1015 NOSIG
Loading
Personal Weather Stations






























Interactive Weather Map New forecast layout! Learn more

10-Day Weather Forecast

Advertisements
Track Severe Weather on mobile